sensor_id;sensor_type;location;lat;lon;timestamp;pressure;altitude;pressure_sealevel;temperature;humidity
16738;BME280;17906;47.684;10.806;2023-05-20T00:01:47;93216.84;;;7.41;nan
16738;BME280;17906;47.684;10.806;2023-05-20T00:04:13;93210.34;;;7.31;nan
16738;BME280;17906;47.684;10.806;2023-05-20T00:06:40;93209.84;;;7.22;nan
16738;BME280;17906;47.684;10.806;2023-05-20T00:09:06;93208.78;;;7.23;nan
16738;BME280;17906;47.684;10.806;2023-05-20T00:11:34;93202.72;;;7.27;nan
16738;BME280;17906;47.684;10.806;2023-05-20T00:14:01;93208.00;;;7.34;nan
16738;BME280;17906;47.684;10.806;2023-05-20T00:16:27;93206.38;;;7.33;nan
16738;BME280;17906;47.684;10.806;2023-05-20T00:18:53;93197.09;;;7.29;nan
16738;BME280;17906;47.684;10.806;2023-05-20T00:21:20;93201.03;;;7.15;nan
16738;BME280;17906;47.684;10.806;2023-05-20T00:23:47;93195.84;;;7.13;nan
16738;BME280;17906;47.684;10.806;2023-05-20T00:26:13;93193.22;;;6.95;nan
16738;BME280;17906;47.684;10.806;2023-05-20T00:28:41;93189.06;;;6.92;nan
16738;BME280;17906;47.684;10.806;2023-05-20T00:31:08;93184.75;;;6.91;nan
16738;BME280;17906;47.684;10.806;2023-05-20T00:33:35;93179.91;;;6.82;nan
16738;BME280;17906;47.684;10.806;2023-05-20T00:36:01;93183.50;;;6.76;nan
16738;BME280;17906;47.684;10.806;2023-05-20T00:38:28;93194.66;;;6.79;nan
16738;BME280;17906;47.684;10.806;2023-05-20T00:40:54;93194.00;;;6.65;nan
16738;BME280;17906;47.684;10.806;2023-05-20T00:43:21;93188.66;;;6.59;nan
16738;BME280;17906;47.684;10.806;2023-05-20T00:45:51;93186.22;;;6.39;nan
16738;BME280;17906;47.684;10.806;2023-05-20T00:48:18;93191.97;;;6.43;nan
16738;BME280;17906;47.684;10.806;2023-05-20T00:50:46;93188.53;;;6.17;nan
16738;BME280;17906;47.684;10.806;2023-05-20T00:53:14;93194.56;;;6.12;nan
16738;BME280;17906;47.684;10.806;2023-05-20T00:55:42;93194.50;;;5.94;nan
16738;BME280;17906;47.684;10.806;2023-05-20T00:58:09;93195.34;;;5.70;nan
16738;BME280;17906;47.684;10.806;2023-05-20T01:00:36;93202.31;;;5.52;nan
16738;BME280;17906;47.684;10.806;2023-05-20T01:03:04;93200.41;;;5.28;nan
16738;BME280;17906;47.684;10.806;2023-05-20T01:05:30;93183.75;;;5.44;nan
16738;BME280;17906;47.684;10.806;2023-05-20T01:07:57;93187.19;;;5.26;nan
16738;BME280;17906;47.684;10.806;2023-05-20T01:10:24;93189.41;;;5.36;nan
16738;BME280;17906;47.684;10.806;2023-05-20T01:12:56;93185.66;;;5.37;nan
16738;BME280;17906;47.684;10.806;2023-05-20T01:15:26;93189.44;;;5.30;nan
16738;BME280;17906;47.684;10.806;2023-05-20T01:17:57;93183.22;;;5.29;nan
16738;BME280;17906;47.684;10.806;2023-05-20T01:20:27;93198.72;;;5.34;nan
16738;BME280;17906;47.684;10.806;2023-05-20T01:22:55;93209.97;;;5.17;nan
16738;BME280;17906;47.684;10.806;2023-05-20T01:25:23;93196.97;;;5.14;nan
16738;BME280;17906;47.684;10.806;2023-05-20T01:27:51;93199.56;;;4.96;nan
16738;BME280;17906;47.684;10.806;2023-05-20T01:30:19;93205.88;;;4.77;nan
16738;BME280;17906;47.684;10.806;2023-05-20T01:32:51;93213.06;;;4.83;nan
16738;BME280;17906;47.684;10.806;2023-05-20T01:35:19;93201.94;;;4.79;nan
16738;BME280;17906;47.684;10.806;2023-05-20T01:37:47;93203.66;;;4.67;nan
16738;BME280;17906;47.684;10.806;2023-05-20T01:40:15;93192.94;;;4.60;nan
16738;BME280;17906;47.684;10.806;2023-05-20T01:42:42;93186.53;;;4.61;nan
16738;BME280;17906;47.684;10.806;2023-05-20T01:45:10;93180.06;;;4.76;nan
16738;BME280;17906;47.684;10.806;2023-05-20T01:47:37;93175.03;;;4.48;nan
16738;BME280;17906;47.684;10.806;2023-05-20T01:50:04;93178.09;;;4.51;nan
16738;BME280;17906;47.684;10.806;2023-05-20T01:52:31;93169.50;;;4.29;nan
16738;BME280;17906;47.684;10.806;2023-05-20T01:54:58;93175.41;;;4.51;nan
16738;BME280;17906;47.684;10.806;2023-05-20T01:57:26;93181.44;;;4.47;nan
16738;BME280;17906;47.684;10.806;2023-05-20T01:59:52;93183.50;;;4.45;nan
16738;BME280;17906;47.684;10.806;2023-05-20T02:02:18;93187.03;;;4.32;nan
16738;BME280;17906;47.684;10.806;2023-05-20T02:04:47;93177.56;;;4.29;nan
16738;BME280;17906;47.684;10.806;2023-05-20T02:07:14;93178.81;;;4.20;nan
16738;BME280;17906;47.684;10.806;2023-05-20T02:09:40;93164.56;;;4.26;nan
16738;BME280;17906;47.684;10.806;2023-05-20T02:12:07;93164.81;;;4.18;nan
16738;BME280;17906;47.684;10.806;2023-05-20T02:14:35;93177.16;;;4.32;nan
16738;BME280;17906;47.684;10.806;2023-05-20T02:17:02;93174.28;;;4.27;nan
16738;BME280;17906;47.684;10.806;2023-05-20T02:19:28;93169.34;;;4.18;nan
16738;BME280;17906;47.684;10.806;2023-05-20T02:21:55;93172.69;;;4.06;nan
16738;BME280;17906;47.684;10.806;2023-05-20T02:24:21;93172.28;;;3.96;nan
16738;BME280;17906;47.684;10.806;2023-05-20T02:26:48;93174.78;;;3.91;nan
16738;BME280;17906;47.684;10.806;2023-05-20T02:29:15;93170.66;;;3.95;nan
16738;BME280;17906;47.684;10.806;2023-05-20T02:31:43;93174.78;;;3.85;nan
16738;BME280;17906;47.684;10.806;2023-05-20T02:34:09;93174.78;;;3.85;nan
16738;BME280;17906;47.684;10.806;2023-05-20T02:36:36;93174.81;;;3.71;nan
16738;BME280;17906;47.684;10.806;2023-05-20T02:39:02;93175.84;;;3.57;nan
16738;BME280;17906;47.684;10.806;2023-05-20T02:41:29;93181.41;;;3.42;nan
16738;BME280;17906;47.684;10.806;2023-05-20T02:43:55;93184.06;;;3.22;nan
16738;BME280;17906;47.684;10.806;2023-05-20T02:46:22;93179.16;;;3.26;nan
16738;BME280;17906;47.684;10.806;2023-05-20T02:48:49;93177.47;;;3.45;nan
16738;BME280;17906;47.684;10.806;2023-05-20T02:51:16;93181.00;;;3.39;nan
16738;BME280;17906;47.684;10.806;2023-05-20T02:53:42;93179.78;;;3.35;nan
16738;BME280;17906;47.684;10.806;2023-05-20T02:56:09;93191.09;;;3.30;nan
16738;BME280;17906;47.684;10.806;2023-05-20T02:58:37;93175.22;;;3.29;nan
16738;BME280;17906;47.684;10.806;2023-05-20T03:01:04;93179.13;;;3.39;nan
16738;BME280;17906;47.684;10.806;2023-05-20T03:03:31;93187.56;;;3.43;nan
16738;BME280;17906;47.684;10.806;2023-05-20T03:05:59;93182.84;;;3.32;nan
16738;BME280;17906;47.684;10.806;2023-05-20T03:08:26;93184.50;;;3.39;nan
16738;BME280;17906;47.684;10.806;2023-05-20T03:10:52;93181.41;;;3.42;nan
16738;BME280;17906;47.684;10.806;2023-05-20T03:13:19;93178.50;;;3.31;nan
16738;BME280;17906;47.684;10.806;2023-05-20T03:15:45;93181.81;;;3.33;nan
16738;BME280;17906;47.684;10.806;2023-05-20T03:18:12;93183.66;;;3.19;nan
16738;BME280;17906;47.684;10.806;2023-05-20T03:20:38;93180.56;;;3.02;nan
16738;BME280;17906;47.684;10.806;2023-05-20T03:23:07;93186.94;;;3.08;nan
16738;BME280;17906;47.684;10.806;2023-05-20T03:25:35;93181.19;;;3.04;nan
16738;BME280;17906;47.684;10.806;2023-05-20T03:28:01;93182.59;;;3.00;nan
16738;BME280;17906;47.684;10.806;2023-05-20T03:30:28;93192.72;;;3.05;nan
16738;BME280;17906;47.684;10.806;2023-05-20T03:32:55;93182.81;;;3.12;nan
16738;BME280;17906;47.684;10.806;2023-05-20T03:35:21;93181.38;;;3.09;nan
16738;BME280;17906;47.684;10.806;2023-05-20T03:37:48;93174.59;;;3.13;nan
16738;BME280;17906;47.684;10.806;2023-05-20T03:40:17;93178.50;;;3.17;nan
16738;BME280;17906;47.684;10.806;2023-05-20T03:42:45;93182.63;;;3.20;nan
16738;BME280;17906;47.684;10.806;2023-05-20T03:45:11;93177.47;;;3.18;nan
16738;BME280;17906;47.684;10.806;2023-05-20T03:47:38;93171.88;;;3.00;nan
16738;BME280;17906;47.684;10.806;2023-05-20T03:50:05;93179.31;;;2.98;nan
16738;BME280;17906;47.684;10.806;2023-05-20T03:52:32;93174.19;;;3.03;nan
16738;BME280;17906;47.684;10.806;2023-05-20T03:54:59;93176.88;;;3.03;nan
16738;BME280;17906;47.684;10.806;2023-05-20T03:57:26;93173.75;;;3.06;nan
16738;BME280;17906;47.684;10.806;2023-05-20T03:59:53;93164.69;;;3.07;nan
16738;BME280;17906;47.684;10.806;2023-05-20T04:02:20;93173.13;;;3.11;nan
16738;BME280;17906;47.684;10.806;2023-05-20T04:04:46;93179.53;;;3.16;nan
16738;BME280;17906;47.684;10.806;2023-05-20T04:07:17;93174.38;;;3.21;nan
16738;BME280;17906;47.684;10.806;2023-05-20T04:09:43;93172.97;;;3.26;nan
16738;BME280;17906;47.684;10.806;2023-05-20T04:12:10;93175.22;;;3.35;nan
16738;BME280;17906;47.684;10.806;2023-05-20T04:14:39;93175.22;;;3.42;nan
16738;BME280;17906;47.684;10.806;2023-05-20T04:17:06;93164.72;;;3.47;nan
16738;BME280;17906;47.684;10.806;2023-05-20T04:19:33;93170.06;;;3.47;nan
16738;BME280;17906;47.684;10.806;2023-05-20T04:22:00;93170.28;;;3.45;nan
16738;BME280;17906;47.684;10.806;2023-05-20T04:24:26;93162.44;;;3.64;nan
16738;BME280;17906;47.684;10.806;2023-05-20T04:26:53;93162.44;;;3.70;nan
16738;BME280;17906;47.684;10.806;2023-05-20T04:29:19;93155.41;;;3.76;nan
16738;BME280;17906;47.684;10.806;2023-05-20T04:31:48;93155.19;;;3.84;nan
16738;BME280;17906;47.684;10.806;2023-05-20T04:34:15;93155.66;;;3.68;nan
16738;BME280;17906;47.684;10.806;2023-05-20T04:36:44;93155.84;;;3.73;nan
16738;BME280;17906;47.684;10.806;2023-05-20T04:39:11;93154.38;;;3.77;nan
16738;BME280;17906;47.684;10.806;2023-05-20T04:41:38;93156.28;;;3.70;nan
16738;BME280;17906;47.684;10.806;2023-05-20T04:44:04;93155.81;;;3.86;nan
16738;BME280;17906;47.684;10.806;2023-05-20T04:46:31;93159.09;;;3.95;nan
16738;BME280;17906;47.684;10.806;2023-05-20T04:48:59;93153.94;;;3.93;nan
16738;BME280;17906;47.684;10.806;2023-05-20T04:51:25;93152.47;;;3.97;nan
16738;BME280;17906;47.684;10.806;2023-05-20T04:53:53;93152.47;;;4.11;nan
16738;BME280;17906;47.684;10.806;2023-05-20T04:56:20;93152.44;;;4.17;nan
16738;BME280;17906;47.684;10.806;2023-05-20T04:58:46;93155.72;;;4.26;nan
16738;BME280;17906;47.684;10.806;2023-05-20T05:01:13;93160.41;;;4.37;nan
16738;BME280;17906;47.684;10.806;2023-05-20T05:03:39;93157.28;;;4.40;nan
16738;BME280;17906;47.684;10.806;2023-05-20T05:06:07;93151.44;;;4.56;nan
16738;BME280;17906;47.684;10.806;2023-05-20T05:08:33;93150.91;;;4.79;nan
16738;BME280;17906;47.684;10.806;2023-05-20T05:11:00;93143.84;;;4.85;nan
16738;BME280;17906;47.684;10.806;2023-05-20T05:13:27;93145.25;;;4.94;nan
16738;BME280;17906;47.684;10.806;2023-05-20T05:15:57;93150.53;;;5.07;nan
16738;BME280;17906;47.684;10.806;2023-05-20T05:18:24;93145.69;;;4.91;nan
16738;BME280;17906;47.684;10.806;2023-05-20T05:20:57;93160.09;;;4.96;nan
16738;BME280;17906;47.684;10.806;2023-05-20T05:23:25;93141.78;;;4.87;nan
16738;BME280;17906;47.684;10.806;2023-05-20T05:25:52;93166.81;;;4.81;nan
16738;BME280;17906;47.684;10.806;2023-05-20T05:28:19;93163.66;;;4.90;nan
16738;BME280;17906;47.684;10.806;2023-05-20T05:30:45;93170.66;;;4.98;nan
16738;BME280;17906;47.684;10.806;2023-05-20T05:33:13;93164.47;;;4.91;nan
16738;BME280;17906;47.684;10.806;2023-05-20T05:35:40;93163.22;;;4.93;nan
16738;BME280;17906;47.684;10.806;2023-05-20T05:38:06;93158.03;;;4.99;nan
16738;BME280;17906;47.684;10.806;2023-05-20T05:40:34;93155.91;;;5.07;nan
16738;BME280;17906;47.684;10.806;2023-05-20T05:43:01;93152.50;;;5.18;nan
16738;BME280;17906;47.684;10.806;2023-05-20T05:45:27;93150.56;;;5.32;nan
16738;BME280;17906;47.684;10.806;2023-05-20T05:47:54;93146.81;;;5.58;nan
16738;BME280;17906;47.684;10.806;2023-05-20T05:50:20;93146.88;;;5.76;nan
16738;BME280;17906;47.684;10.806;2023-05-20T05:52:47;93148.47;;;6.02;nan
16738;BME280;17906;47.684;10.806;2023-05-20T05:55:13;93144.84;;;6.15;nan
16738;BME280;17906;47.684;10.806;2023-05-20T05:57:41;93142.91;;;6.40;nan
16738;BME280;17906;47.684;10.806;2023-05-20T06:00:08;93142.59;;;6.67;nan
16738;BME280;17906;47.684;10.806;2023-05-20T06:02:35;93135.38;;;6.79;nan
16738;BME280;17906;47.684;10.806;2023-05-20T06:05:02;93130.56;;;6.81;nan
16738;BME280;17906;47.684;10.806;2023-05-20T06:07:29;93135.66;;;6.89;nan
16738;BME280;17906;47.684;10.806;2023-05-20T06:09:55;93131.91;;;6.90;nan
16738;BME280;17906;47.684;10.806;2023-05-20T06:12:22;93131.81;;;6.97;nan
16738;BME280;17906;47.684;10.806;2023-05-20T06:14:50;93128.09;;;7.10;nan
16738;BME280;17906;47.684;10.806;2023-05-20T06:17:17;93139.84;;;7.15;nan
16738;BME280;17906;47.684;10.806;2023-05-20T06:19:43;93145.53;;;6.95;nan
16738;BME280;17906;47.684;10.806;2023-05-20T06:22:10;93142.53;;;7.04;nan
16738;BME280;17906;47.684;10.806;2023-05-20T06:24:36;93141.59;;;7.10;nan
16738;BME280;17906;47.684;10.806;2023-05-20T06:27:03;93150.19;;;7.30;nan
16738;BME280;17906;47.684;10.806;2023-05-20T06:29:30;93138.16;;;7.44;nan
16738;BME280;17906;47.684;10.806;2023-05-20T06:31:58;93134.53;;;7.50;nan
16738;BME280;17906;47.684;10.806;2023-05-20T06:34:25;93124.09;;;7.66;nan
16738;BME280;17906;47.684;10.806;2023-05-20T06:36:51;93134.56;;;7.85;nan
16738;BME280;17906;47.684;10.806;2023-05-20T06:39:18;93119.22;;;8.09;nan
16738;BME280;17906;47.684;10.806;2023-05-20T06:41:44;93123.31;;;8.35;nan
16738;BME280;17906;47.684;10.806;2023-05-20T06:44:11;93121.84;;;8.56;nan
16738;BME280;17906;47.684;10.806;2023-05-20T06:46:37;93119.81;;;8.63;nan
16738;BME280;17906;47.684;10.806;2023-05-20T06:49:05;93125.06;;;8.82;nan
16738;BME280;17906;47.684;10.806;2023-05-20T06:51:32;93122.94;;;8.84;nan
16738;BME280;17906;47.684;10.806;2023-05-20T06:53:58;93121.94;;;9.01;nan
16738;BME280;17906;47.684;10.806;2023-05-20T06:56:25;93126.31;;;9.19;nan
16738;BME280;17906;47.684;10.806;2023-05-20T06:58:51;93120.63;;;9.32;nan
16738;BME280;17906;47.684;10.806;2023-05-20T07:01:18;93116.06;;;9.50;nan
16738;BME280;17906;47.684;10.806;2023-05-20T07:03:44;93111.13;;;9.64;nan
16738;BME280;17906;47.684;10.806;2023-05-20T07:06:12;93110.75;;;9.55;nan
16738;BME280;17906;47.684;10.806;2023-05-20T07:08:39;93113.53;;;9.77;nan
16738;BME280;17906;47.684;10.806;2023-05-20T07:11:05;93109.75;;;9.78;nan
16738;BME280;17906;47.684;10.806;2023-05-20T07:13:32;93109.81;;;9.83;nan
16738;BME280;17906;47.684;10.806;2023-05-20T07:15:58;93100.25;;;9.75;nan
16738;BME280;17906;47.684;10.806;2023-05-20T07:18:25;93089.06;;;9.72;nan
16738;BME280;17906;47.684;10.806;2023-05-20T07:20:52;93089.81;;;9.67;nan
16738;BME280;17906;47.684;10.806;2023-05-20T07:23:22;93076.75;;;9.98;nan
16738;BME280;17906;47.684;10.806;2023-05-20T07:25:48;93075.88;;;10.31;nan
16738;BME280;17906;47.684;10.806;2023-05-20T07:28:15;93070.00;;;10.39;nan
16738;BME280;17906;47.684;10.806;2023-05-20T07:30:42;93075.53;;;10.71;nan
16738;BME280;17906;47.684;10.806;2023-05-20T07:33:14;93064.69;;;10.71;nan
16738;BME280;17906;47.684;10.806;2023-05-20T07:35:40;93064.78;;;10.76;nan
16738;BME280;17906;47.684;10.806;2023-05-20T07:38:07;93060.81;;;10.84;nan
16738;BME280;17906;47.684;10.806;2023-05-20T07:40:35;93056.84;;;11.18;nan
16738;BME280;17906;47.684;10.806;2023-05-20T07:43:03;93053.50;;;11.11;nan
16738;BME280;17906;47.684;10.806;2023-05-20T07:45:30;93054.19;;;10.96;nan
16738;BME280;17906;47.684;10.806;2023-05-20T07:47:56;93053.78;;;11.10;nan
16738;BME280;17906;47.684;10.806;2023-05-20T07:50:23;93047.66;;;11.24;nan
16738;BME280;17906;47.684;10.806;2023-05-20T07:52:49;93051.56;;;11.66;nan
16738;BME280;17906;47.684;10.806;2023-05-20T07:55:16;93053.78;;;11.74;nan
16738;BME280;17906;47.684;10.806;2023-05-20T07:57:44;93052.25;;;11.88;nan
16738;BME280;17906;47.684;10.806;2023-05-20T08:00:11;93049.66;;;12.03;nan
16738;BME280;17906;47.684;10.806;2023-05-20T08:02:38;93048.47;;;11.89;nan
16738;BME280;17906;47.684;10.806;2023-05-20T08:05:06;93054.63;;;11.74;nan
16738;BME280;17906;47.684;10.806;2023-05-20T08:07:33;93048.72;;;11.87;nan
16738;BME280;17906;47.684;10.806;2023-05-20T08:09:59;93051.03;;;12.06;nan
16738;BME280;17906;47.684;10.806;2023-05-20T08:12:26;93063.50;;;12.44;nan
16738;BME280;17906;47.684;10.806;2023-05-20T08:14:54;93065.34;;;12.33;nan
16738;BME280;17906;47.684;10.806;2023-05-20T08:17:20;93055.22;;;12.24;nan
16738;BME280;17906;47.684;10.806;2023-05-20T08:19:47;93057.66;;;12.15;nan
16738;BME280;17906;47.684;10.806;2023-05-20T08:22:13;93055.13;;;12.08;nan
16738;BME280;17906;47.684;10.806;2023-05-20T08:24:40;93054.56;;;12.54;nan
16738;BME280;17906;47.684;10.806;2023-05-20T08:27:06;93056.06;;;12.87;nan
16738;BME280;17906;47.684;10.806;2023-05-20T08:29:33;93062.56;;;12.75;nan
16738;BME280;17906;47.684;10.806;2023-05-20T08:32:01;93053.03;;;12.73;nan
16738;BME280;17906;47.684;10.806;2023-05-20T08:34:27;93056.66;;;12.99;nan
16738;BME280;17906;47.684;10.806;2023-05-20T08:36:54;93061.75;;;12.75;nan
16738;BME280;17906;47.684;10.806;2023-05-20T08:39:22;93061.66;;;12.55;nan
16738;BME280;17906;47.684;10.806;2023-05-20T08:41:48;93065.59;;;12.27;nan
16738;BME280;17906;47.684;10.806;2023-05-20T08:44:16;93061.47;;;12.24;nan
16738;BME280;17906;47.684;10.806;2023-05-20T08:46:45;93069.91;;;12.23;nan
16738;BME280;17906;47.684;10.806;2023-05-20T08:49:13;93064.09;;;12.51;nan
16738;BME280;17906;47.684;10.806;2023-05-20T08:51:39;93067.50;;;12.89;nan
16738;BME280;17906;47.684;10.806;2023-05-20T08:54:07;93060.28;;;13.25;nan
16738;BME280;17906;47.684;10.806;2023-05-20T08:56:36;93058.91;;;13.27;nan
16738;BME280;17906;47.684;10.806;2023-05-20T08:59:03;93064.41;;;13.38;nan
16738;BME280;17906;47.684;10.806;2023-05-20T09:01:30;93059.00;;;13.68;nan
16738;BME280;17906;47.684;10.806;2023-05-20T09:03:57;93060.09;;;13.57;nan
16738;BME280;17906;47.684;10.806;2023-05-20T09:06:25;93058.72;;;13.44;nan
16738;BME280;17906;47.684;10.806;2023-05-20T09:08:52;93058.69;;;13.64;nan
16738;BME280;17906;47.684;10.806;2023-05-20T09:11:19;93046.44;;;13.98;nan
16738;BME280;17906;47.684;10.806;2023-05-20T09:13:46;93040.66;;;14.55;nan
16738;BME280;17906;47.684;10.806;2023-05-20T09:16:12;93040.41;;;15.06;nan
16738;BME280;17906;47.684;10.806;2023-05-20T09:18:39;93035.13;;;15.25;nan
16738;BME280;17906;47.684;10.806;2023-05-20T09:21:08;93024.41;;;15.78;nan
16738;BME280;17906;47.684;10.806;2023-05-20T09:23:37;93017.00;;;15.83;nan
16738;BME280;17906;47.684;10.806;2023-05-20T09:26:03;93026.97;;;15.20;nan
16738;BME280;17906;47.684;10.806;2023-05-20T09:28:30;93018.66;;;14.91;nan
16738;BME280;17906;47.684;10.806;2023-05-20T09:30:57;93022.81;;;14.73;nan
16738;BME280;17906;47.684;10.806;2023-05-20T09:33:26;93024.41;;;14.89;nan
16738;BME280;17906;47.684;10.806;2023-05-20T09:36:00;93018.19;;;15.72;nan
16738;BME280;17906;47.684;10.806;2023-05-20T09:38:28;93030.50;;;16.62;nan
16738;BME280;17906;47.684;10.806;2023-05-20T09:41:01;93022.03;;;17.25;nan
16738;BME280;17906;47.684;10.806;2023-05-20T09:43:29;93033.56;;;17.03;nan
16738;BME280;17906;47.684;10.806;2023-05-20T09:45:56;93029.97;;;16.84;nan
16738;BME280;17906;47.684;10.806;2023-05-20T09:48:25;93020.56;;;16.90;nan
16738;BME280;17906;47.684;10.806;2023-05-20T09:50:53;93032.81;;;16.73;nan
16738;BME280;17906;47.684;10.806;2023-05-20T09:53:22;93031.25;;;17.34;nan
16738;BME280;17906;47.684;10.806;2023-05-20T09:55:52;93032.00;;;17.58;nan
16738;BME280;17906;47.684;10.806;2023-05-20T09:58:21;93028.38;;;17.63;nan
16738;BME280;17906;47.684;10.806;2023-05-20T10:00:48;93024.44;;;17.69;nan
16738;BME280;17906;47.684;10.806;2023-05-20T10:03:14;93037.47;;;17.39;nan
16738;BME280;17906;47.684;10.806;2023-05-20T10:05:46;93027.13;;;17.13;nan
16738;BME280;17906;47.684;10.806;2023-05-20T10:08:26;93025.66;;;16.77;nan
16738;BME280;17906;47.684;10.806;2023-05-20T10:11:04;59087.34;;;-146.04;100.00
16738;BME280;17906;47.684;10.806;2023-05-20T10:13:54;59087.34;;;-146.04;100.00
16738;BME280;17906;47.684;10.806;2023-05-20T10:16:30;59087.34;;;-146.04;100.00
16738;BME280;17906;47.684;10.806;2023-05-20T10:19:06;59087.34;;;-146.04;100.00
16738;BME280;17906;47.684;10.806;2023-05-20T10:21:35;93023.88;;;16.10;nan
16738;BME280;17906;47.684;10.806;2023-05-20T10:24:05;93022.00;;;16.05;nan
16738;BME280;17906;47.684;10.806;2023-05-20T10:26:34;93019.63;;;16.22;nan
16738;BME280;17906;47.684;10.806;2023-05-20T10:29:13;93029.28;;;16.73;nan
16738;BME280;17906;47.684;10.806;2023-05-20T10:31:43;93023.91;;;16.39;nan
16738;BME280;17906;47.684;10.806;2023-05-20T10:34:13;93012.78;;;16.78;nan
16738;BME280;17906;47.684;10.806;2023-05-20T10:36:44;93015.03;;;16.95;nan
16738;BME280;17906;47.684;10.806;2023-05-20T10:39:14;93012.66;;;16.88;nan
16738;BME280;17906;47.684;10.806;2023-05-20T10:41:41;93003.22;;;16.75;nan
16738;BME280;17906;47.684;10.806;2023-05-20T10:44:09;93004.44;;;16.40;nan
16738;BME280;17906;47.684;10.806;2023-05-20T10:46:36;92992.78;;;16.30;nan
16738;BME280;17906;47.684;10.806;2023-05-20T10:49:03;92989.78;;;16.55;nan
16738;BME280;17906;47.684;10.806;2023-05-20T10:51:31;92993.16;;;16.47;nan
16738;BME280;17906;47.684;10.806;2023-05-20T10:54:01;92993.34;;;16.98;nan
16738;BME280;17906;47.684;10.806;2023-05-20T10:56:27;92990.00;;;17.25;nan
16738;BME280;17906;47.684;10.806;2023-05-20T10:58:54;92993.88;;;17.19;nan
16738;BME280;17906;47.684;10.806;2023-05-20T11:01:25;92985.47;;;17.34;nan
16738;BME280;17906;47.684;10.806;2023-05-20T11:03:53;92978.41;;;17.66;nan
16738;BME280;17906;47.684;10.806;2023-05-20T11:06:24;92982.72;;;17.16;nan
16738;BME280;17906;47.684;10.806;2023-05-20T11:08:52;92975.25;;;17.59;nan
16738;BME280;17906;47.684;10.806;2023-05-20T11:11:19;92973.53;;;17.63;nan
16738;BME280;17906;47.684;10.806;2023-05-20T11:13:49;92964.38;;;17.86;nan
16738;BME280;17906;47.684;10.806;2023-05-20T11:16:16;92966.06;;;18.01;nan
16738;BME280;17906;47.684;10.806;2023-05-20T11:18:47;92968.09;;;18.09;nan
16738;BME280;17906;47.684;10.806;2023-05-20T11:21:13;92968.56;;;18.16;nan
16738;BME280;17906;47.684;10.806;2023-05-20T11:23:40;92964.94;;;18.02;nan
16738;BME280;17906;47.684;10.806;2023-05-20T11:26:07;92965.13;;;18.06;nan
16738;BME280;17906;47.684;10.806;2023-05-20T11:28:34;92965.81;;;17.97;nan
16738;BME280;17906;47.684;10.806;2023-05-20T11:31:03;92962.03;;;17.80;nan
16738;BME280;17906;47.684;10.806;2023-05-20T11:33:30;92961.13;;;17.84;nan
16738;BME280;17906;47.684;10.806;2023-05-20T11:35:57;92966.44;;;17.94;nan
16738;BME280;17906;47.684;10.806;2023-05-20T11:38:24;92953.13;;;18.34;nan
16738;BME280;17906;47.684;10.806;2023-05-20T11:40:51;92949.59;;;18.34;nan
16738;BME280;17906;47.684;10.806;2023-05-20T11:43:19;92947.03;;;18.51;nan
16738;BME280;17906;47.684;10.806;2023-05-20T11:45:47;92954.53;;;18.18;nan
16738;BME280;17906;47.684;10.806;2023-05-20T11:48:18;92944.66;;;18.17;nan
16738;BME280;17906;47.684;10.806;2023-05-20T11:50:45;92950.28;;;18.53;nan
16738;BME280;17906;47.684;10.806;2023-05-20T11:53:15;92951.91;;;18.81;nan
16738;BME280;17906;47.684;10.806;2023-05-20T11:55:47;92942.25;;;18.84;nan
16738;BME280;17906;47.684;10.806;2023-05-20T11:58:15;92952.53;;;18.78;nan
16738;BME280;17906;47.684;10.806;2023-05-20T12:00:42;92941.25;;;18.80;nan
16738;BME280;17906;47.684;10.806;2023-05-20T12:03:08;92930.31;;;19.16;nan
16738;BME280;17906;47.684;10.806;2023-05-20T12:05:35;92928.00;;;18.96;nan
16738;BME280;17906;47.684;10.806;2023-05-20T12:08:02;92935.47;;;18.54;nan
16738;BME280;17906;47.684;10.806;2023-05-20T12:10:31;92931.59;;;18.55;nan
16738;BME280;17906;47.684;10.806;2023-05-20T12:12:58;92939.53;;;18.57;nan
16738;BME280;17906;47.684;10.806;2023-05-20T12:15:24;92940.84;;;17.99;nan
16738;BME280;17906;47.684;10.806;2023-05-20T12:17:52;92922.16;;;18.01;nan
16738;BME280;17906;47.684;10.806;2023-05-20T12:20:20;92930.88;;;18.49;nan
16738;BME280;17906;47.684;10.806;2023-05-20T12:22:47;92926.69;;;18.79;nan
16738;BME280;17906;47.684;10.806;2023-05-20T12:25:16;92922.09;;;18.89;nan
16738;BME280;17906;47.684;10.806;2023-05-20T12:27:47;92920.00;;;18.99;nan
16738;BME280;17906;47.684;10.806;2023-05-20T12:30:15;92917.06;;;19.18;nan
16738;BME280;17906;47.684;10.806;2023-05-20T12:32:42;92922.69;;;19.13;nan
16738;BME280;17906;47.684;10.806;2023-05-20T12:35:09;92917.50;;;19.11;nan
16738;BME280;17906;47.684;10.806;2023-05-20T12:37:36;92920.16;;;19.03;nan
16738;BME280;17906;47.684;10.806;2023-05-20T12:40:03;92916.94;;;18.60;nan
16738;BME280;17906;47.684;10.806;2023-05-20T12:42:33;92908.59;;;18.65;nan
16738;BME280;17906;47.684;10.806;2023-05-20T12:45:01;92915.53;;;18.48;nan
16738;BME280;17906;47.684;10.806;2023-05-20T12:47:27;92916.53;;;18.52;nan
16738;BME280;17906;47.684;10.806;2023-05-20T12:49:54;92912.66;;;18.26;nan
16738;BME280;17906;47.684;10.806;2023-05-20T12:52:20;92907.19;;;18.26;nan
16738;BME280;17906;47.684;10.806;2023-05-20T12:54:47;92905.44;;;18.16;nan
16738;BME280;17906;47.684;10.806;2023-05-20T12:57:13;92901.22;;;17.91;nan
16738;BME280;17906;47.684;10.806;2023-05-20T12:59:40;92901.94;;;17.97;nan
16738;BME280;17906;47.684;10.806;2023-05-20T13:02:07;92891.88;;;17.92;nan
16738;BME280;17906;47.684;10.806;2023-05-20T13:04:34;92897.25;;;17.97;nan
16738;BME280;17906;47.684;10.806;2023-05-20T13:07:01;92895.00;;;18.00;nan
16738;BME280;17906;47.684;10.806;2023-05-20T13:09:27;92895.81;;;17.86;nan
16738;BME280;17906;47.684;10.806;2023-05-20T13:11:54;92895.56;;;18.02;nan
16738;BME280;17906;47.684;10.806;2023-05-20T13:14:21;92896.22;;;18.12;nan
16738;BME280;17906;47.684;10.806;2023-05-20T13:16:48;92896.50;;;18.24;nan
16738;BME280;17906;47.684;10.806;2023-05-20T13:19:16;92896.31;;;18.35;nan